Godreau, Canada
Current Conditions -  °F | °C
As of 8:00 AM on Friday 31 Oct 2014 (Local Time) from CYXZ Reporting Station
Broken Clouds Broken Clouds  
Wind Chill: 15°   Ceiling: 1800
Heat Index: 27°   Visibility: 15mi
Dew Point: 19°   Wind: 14mph
Humidity: 74%   Direction: 20°NNE
Pressure: 30.24"   Gusts: 26mph
Location:  48.25°N, 84.53°W
Report Text: CYXZ 311200Z 02012G23KT 340V050 15SM BKN018 M03/M07 A3024 RMK SC6 SLP258
Loading
Personal Weather Stations






























Interactive Weather Map
Tropical Storm Tracking
New forecast layout! Learn more

10-Day Weather Forecast

Advertisements
Track Severe Weather on mobile